createdAt,value
2022-08-05T00:00:05.424Z,57
2022-08-05T00:02:07.512Z,57
2022-08-05T00:04:08.285Z,57
2022-08-05T00:06:22.225Z,57
2022-08-05T00:08:19.924Z,57
2022-08-05T00:10:07.756Z,57
2022-08-05T00:12:13.034Z,57
2022-08-05T00:14:12.179Z,57
2022-08-05T00:16:05.345Z,57
2022-08-05T00:18:08.255Z,57
2022-08-05T00:20:05.347Z,58
2022-08-05T00:22:07.649Z,58
2022-08-05T00:24:10.219Z,58
2022-08-05T00:26:05.374Z,58
2022-08-05T00:28:05.344Z,58
2022-08-05T00:30:05.332Z,58
2022-08-05T00:34:42.816Z,59
2022-08-05T00:36:15.356Z,58
2022-08-05T00:38:05.297Z,58
2022-08-05T00:40:05.388Z,58
2022-08-05T00:42:05.504Z,59
2022-08-05T00:44:05.330Z,59
2022-08-05T00:46:08.353Z,59
2022-08-05T00:48:09.394Z,59
2022-08-05T00:50:13.848Z,59
2022-08-05T00:52:08.049Z,59
2022-08-05T00:54:05.354Z,58
2022-08-05T00:56:05.292Z,58
2022-08-05T00:58:08.272Z,58
2022-08-05T01:00:11.079Z,58
2022-08-05T01:02:07.028Z,58
2022-08-05T01:04:13.603Z,58
2022-08-05T01:06:11.354Z,59
2022-08-05T01:08:30.540Z,60
2022-08-05T01:12:18.350Z,61
2022-08-05T01:14:08.670Z,61
2022-08-05T01:16:05.336Z,62
2022-08-05T01:18:05.324Z,61
2022-08-05T01:20:05.331Z,60
2022-08-05T01:26:09.751Z,59
2022-08-05T01:28:05.346Z,59
2022-08-05T01:30:12.527Z,60
2022-08-05T01:32:05.408Z,59
2022-08-05T01:34:05.350Z,59
2022-08-05T01:36:05.370Z,59
2022-08-05T01:38:14.501Z,59
2022-08-05T01:40:08.018Z,59
2022-08-05T01:44:05.344Z,59
2022-08-05T01:46:07.078Z,59
2022-08-05T01:48:11.642Z,59
2022-08-05T01:54:07.493Z,60
2022-08-05T01:56:08.871Z,60
2022-08-05T01:58:09.068Z,60
2022-08-05T02:00:11.785Z,60
2022-08-05T02:04:11.422Z,60
2022-08-05T02:06:24.133Z,61
2022-08-05T02:08:05.335Z,62
2022-08-05T02:10:07.935Z,62
2022-08-05T02:12:10.088Z,62
2022-08-05T02:16:06.228Z,61
2022-08-05T02:20:06.968Z,61
2022-08-05T02:22:05.321Z,61
2022-08-05T02:24:05.341Z,62
2022-08-05T02:26:05.366Z,63
2022-08-05T02:28:10.954Z,65
2022-08-05T02:30:05.408Z,65
2022-08-05T02:32:05.377Z,66
2022-08-05T02:34:10.661Z,65
2022-08-05T02:36:07.004Z,63
2022-08-05T02:38:05.333Z,63
2022-08-05T02:42:07.627Z,62
2022-08-05T02:44:06.667Z,63
2022-08-05T02:48:12.853Z,62
2022-08-05T02:50:06.957Z,63
2022-08-05T02:52:05.358Z,63
2022-08-05T02:54:05.344Z,64
2022-08-05T02:58:13.317Z,63
2022-08-05T03:00:08.284Z,63
2022-08-05T03:02:08.458Z,64
2022-08-05T03:04:08.927Z,64
2022-08-05T03:06:52.889Z,65
2022-08-05T03:08:07.462Z,65
2022-08-05T03:10:05.419Z,65
2022-08-05T03:12:08.225Z,67
2022-08-05T03:14:05.334Z,68
2022-08-05T03:18:08.165Z,66
2022-08-05T03:20:05.397Z,67
2022-08-05T03:22:15.924Z,67
2022-08-05T03:24:05.354Z,67
2022-08-05T03:26:30.055Z,67
2022-08-05T03:28:08.608Z,67
2022-08-05T03:30:07.892Z,68
2022-08-05T03:32:05.361Z,67
2022-08-05T03:34:08.234Z,67
2022-08-05T03:36:06.602Z,67
2022-08-05T03:40:07.766Z,68
2022-08-05T03:42:08.493Z,70
2022-08-05T03:44:10.134Z,70
2022-08-05T03:46:05.334Z,69
2022-08-05T03:48:08.062Z,69
2022-08-05T03:50:10.137Z,68
2022-08-05T03:52:36.239Z,69
2022-08-05T03:55:00.623Z,69
2022-08-05T03:56:12.298Z,69
2022-08-05T03:58:07.705Z,69
2022-08-05T04:00:05.413Z,69
2022-08-05T04:02:10.046Z,69
2022-08-05T04:04:09.619Z,69
2022-08-05T04:06:05.673Z,67
2022-08-05T04:12:44.486Z,67
2022-08-05T04:12:48.751Z,67
2022-08-05T04:14:43.574Z,67
2022-08-05T04:16:45.851Z,66
2022-08-05T04:18:47.484Z,67
2022-08-05T04:20:47.158Z,67
2022-08-05T04:22:46.617Z,67
2022-08-05T04:24:52.350Z,67
2022-08-05T04:26:48.010Z,66
2022-08-05T04:28:50.917Z,65
2022-08-05T04:30:47.156Z,66
2022-08-05T04:32:46.314Z,66
2022-08-05T04:34:48.727Z,67
2022-08-05T04:36:50.005Z,66
2022-08-05T04:38:50.943Z,68
2022-08-05T04:40:47.943Z,68
2022-08-05T04:42:47.537Z,67
2022-08-05T04:44:45.902Z,67
2022-08-05T04:46:46.912Z,66
2022-08-05T04:48:49.101Z,65
2022-08-05T04:51:01.392Z,64
2022-08-05T04:52:44.407Z,65
2022-08-05T04:54:46.177Z,65
2022-08-05T04:56:48.794Z,64
2022-08-05T04:58:45.384Z,64
2022-08-05T05:00:52.314Z,64
2022-08-05T05:02:48.577Z,63
2022-08-05T05:04:47.952Z,63
2022-08-05T05:06:49.185Z,62
2022-08-05T05:08:45.852Z,62
2022-08-05T05:10:54.784Z,62
2022-08-05T05:12:47.956Z,61
2022-08-05T05:14:49.245Z,62
2022-08-05T05:16:45.754Z,63
2022-08-05T05:19:09.148Z,62
2022-08-05T05:20:49.763Z,63
2022-08-05T05:22:48.806Z,63
2022-08-05T05:24:58.258Z,63
2022-08-05T05:26:46.535Z,63
2022-08-05T05:28:46.225Z,63
2022-08-05T05:30:49.649Z,63
2022-08-05T05:32:48.880Z,63
2022-08-05T05:34:47.547Z,64
2022-08-05T05:36:51.205Z,64
2022-08-05T05:38:45.893Z,64
2022-08-05T05:40:50.141Z,64
2022-08-05T05:42:47.870Z,64
2022-08-05T05:44:47.454Z,65
2022-08-05T05:46:46.695Z,66
2022-08-05T05:48:48.964Z,66
2022-08-05T05:50:45.805Z,66
2022-08-05T05:52:48.039Z,67
2022-08-05T05:54:50.687Z,67
2022-08-05T05:56:45.835Z,67
2022-08-05T05:58:47.571Z,68
2022-08-05T06:00:48.851Z,68
2022-08-05T06:02:48.016Z,67
2022-08-05T06:04:47.579Z,67
2022-08-05T06:08:49.153Z,63
2022-08-05T06:10:49.063Z,60
2022-08-05T06:12:51.796Z,63
2022-08-05T06:14:48.988Z,63
2022-08-05T06:16:49.252Z,60
2022-08-05T06:18:47.708Z,64
2022-08-05T06:20:49.067Z,67
2022-08-05T06:22:46.260Z,67
2022-08-05T06:24:48.999Z,67
2022-08-05T06:26:45.922Z,67
2022-08-05T06:28:47.966Z,67
2022-08-05T06:32:46.803Z,67
2022-08-05T06:34:53.375Z,64
2022-08-05T06:36:53.727Z,65
2022-08-05T06:38:47.539Z,66
2022-08-05T06:40:45.855Z,67
2022-08-05T06:42:45.808Z,68
2022-08-05T06:44:49.225Z,67
2022-08-05T06:46:46.587Z,66
2022-08-05T06:48:55.486Z,66
2022-08-05T06:50:48.058Z,63
2022-08-05T06:52:58.398Z,60
2022-08-05T06:54:46.657Z,60
2022-08-05T06:56:54.596Z,63
2022-08-05T06:58:48.979Z,62
2022-08-05T07:00:48.146Z,62
2022-08-05T07:02:53.540Z,61
2022-08-05T07:04:46.097Z,62
2022-08-05T07:06:46.234Z,61
2022-08-05T07:08:47.354Z,61
2022-08-05T07:10:52.623Z,61
2022-08-05T07:12:48.943Z,60
2022-08-05T07:14:47.049Z,60
2022-08-05T07:17:57.852Z,60
2022-08-05T07:20:45.862Z,60
2022-08-05T07:22:48.332Z,60
2022-08-05T07:24:52.608Z,60
2022-08-05T07:26:47.106Z,58
2022-08-05T07:28:45.850Z,58
2022-08-05T07:30:47.494Z,58
2022-08-05T07:32:50.838Z,58
2022-08-05T07:34:45.831Z,58
2022-08-05T07:36:45.831Z,58
2022-08-05T07:38:54.861Z,58
2022-08-05T07:40:46.755Z,58
2022-08-05T07:42:48.956Z,57
2022-08-05T07:44:48.739Z,57
2022-08-05T07:46:47.421Z,57
2022-08-05T07:49:01.341Z,57
2022-08-05T07:50:48.810Z,57
2022-08-05T07:52:45.839Z,57
2022-08-05T07:54:47.717Z,56
2022-08-05T07:57:03.008Z,56
2022-08-05T07:58:54.583Z,56
2022-08-05T08:00:45.794Z,56
2022-08-05T08:03:14.394Z,56
2022-08-05T08:04:46.252Z,56
2022-08-05T08:06:47.935Z,56
2022-08-05T08:08:48.393Z,56
2022-08-05T08:10:49.203Z,56
2022-08-05T08:12:48.970Z,56
2022-08-05T08:14:48.415Z,56
2022-08-05T08:16:50.675Z,56
2022-08-05T08:18:50.067Z,56
2022-08-05T08:21:00.843Z,57
2022-08-05T08:22:48.489Z,57
2022-08-05T08:24:46.041Z,56
2022-08-05T08:26:45.851Z,57
2022-08-05T08:28:55.042Z,56
2022-08-05T08:30:50.120Z,56
2022-08-05T08:32:45.685Z,56
2022-08-05T08:34:47.664Z,55
2022-08-05T08:36:47.508Z,54
2022-08-05T08:38:53.053Z,54
2022-08-05T08:40:51.402Z,54
2022-08-05T08:42:46.684Z,54
2022-08-05T08:45:21.582Z,53
2022-08-05T08:46:48.776Z,53
2022-08-05T08:49:03.137Z,53
2022-08-05T08:50:52.680Z,54
2022-08-05T08:52:51.601Z,53
2022-08-05T08:54:49.027Z,53
2022-08-05T08:56:49.428Z,53
2022-08-05T08:58:47.777Z,53
2022-08-05T09:00:45.867Z,53
2022-08-05T09:02:48.307Z,52
2022-08-05T09:04:47.598Z,52
2022-08-05T09:06:49.923Z,51
2022-08-05T09:08:46.647Z,51
2022-08-05T09:10:49.030Z,51
2022-08-05T09:12:46.074Z,50
2022-08-05T09:14:55.104Z,51
2022-08-05T09:16:48.891Z,51
2022-08-05T09:18:45.909Z,50
2022-08-05T09:20:47.510Z,50
2022-08-05T09:22:51.746Z,50
2022-08-05T09:24:45.843Z,48
2022-08-05T09:26:47.549Z,48
2022-08-05T09:28:48.890Z,48
2022-08-05T09:30:52.562Z,48
2022-08-05T09:32:46.961Z,48
2022-08-05T09:34:45.887Z,48
2022-08-05T09:36:55.524Z,48
2022-08-05T09:38:47.472Z,48
2022-08-05T09:40:52.051Z,48
2022-08-05T09:42:49.204Z,48
2022-08-05T09:44:45.904Z,47
2022-08-05T09:46:50.178Z,47
2022-08-05T09:48:55.223Z,48
2022-08-05T09:50:48.062Z,48
2022-08-05T09:52:45.828Z,48
2022-08-05T09:54:45.946Z,48
2022-08-05T09:56:51.659Z,48
2022-08-05T09:58:50.227Z,48
2022-08-05T10:00:48.430Z,48
2022-08-05T10:02:46.751Z,48
2022-08-05T10:04:47.234Z,48
2022-08-05T10:06:49.760Z,48
2022-08-05T10:08:50.255Z,48
2022-08-05T10:10:48.233Z,48
2022-08-05T10:12:49.516Z,48
2022-08-05T10:14:45.992Z,48
2022-08-05T10:16:52.693Z,48
2022-08-05T10:18:48.359Z,47
2022-08-05T10:20:48.492Z,48
2022-08-05T10:22:48.811Z,47
2022-08-05T10:24:47.756Z,48
2022-08-05T10:26:46.705Z,47
2022-08-05T10:28:46.266Z,47
2022-08-05T10:32:50.348Z,47
2022-08-05T10:32:50.351Z,47
2022-08-05T10:34:47.291Z,47
2022-08-05T10:36:48.536Z,47
2022-08-05T10:38:45.506Z,46
2022-08-05T10:40:50.807Z,46
2022-08-05T10:42:47.329Z,46
2022-08-05T10:44:45.913Z,46
2022-08-05T10:46:50.833Z,46
2022-08-05T10:48:53.151Z,46
2022-08-05T10:50:48.566Z,46
2022-08-05T10:52:49.695Z,47
2022-08-05T10:54:47.062Z,46
2022-08-05T10:56:49.375Z,45
2022-08-05T10:58:47.957Z,46
2022-08-05T11:00:47.145Z,46
2022-08-05T11:04:48.013Z,45
2022-08-05T11:06:46.816Z,45
2022-08-05T11:08:47.450Z,46
2022-08-05T11:10:50.179Z,45
2022-08-05T11:12:50.694Z,44
2022-08-05T11:15:01.652Z,45
2022-08-05T11:16:56.254Z,45
2022-08-05T11:18:48.221Z,45
2022-08-05T11:20:45.852Z,45
2022-08-05T11:22:49.817Z,45
2022-08-05T11:24:50.619Z,45
2022-08-05T11:29:53.047Z,45
2022-08-05T11:34:26.198Z,44
2022-08-05T11:36:33.900Z,44
2022-08-05T11:38:27.028Z,45
2022-08-05T11:40:23.218Z,44
2022-08-05T11:42:22.279Z,44
2022-08-05T11:44:41.047Z,44
2022-08-05T11:48:30.267Z,44
2022-08-05T11:50:31.435Z,43
2022-08-05T11:52:29.143Z,43
2022-08-05T11:54:34.598Z,43
2022-08-05T11:56:40.845Z,44
2022-08-05T11:58:29.468Z,44
2022-08-05T12:00:31.380Z,43
2022-08-05T12:02:31.040Z,44
2022-08-05T12:04:28.276Z,43
2022-08-05T12:06:28.146Z,43
2022-08-05T12:08:28.119Z,43
2022-08-05T12:10:39.015Z,44
2022-08-05T12:12:28.921Z,43
2022-08-05T12:14:25.689Z,43
2022-08-05T12:16:28.303Z,43
2022-08-05T12:18:32.446Z,43
2022-08-05T12:20:33.356Z,43
2022-08-05T12:22:28.116Z,43
2022-08-05T12:24:25.414Z,43
2022-08-05T12:26:34.835Z,87
2022-08-05T12:28:31.050Z,45
2022-08-05T12:30:29.062Z,43
2022-08-05T12:32:31.369Z,42
2022-08-05T12:34:30.772Z,43
2022-08-05T12:36:31.596Z,44
2022-08-05T12:38:30.165Z,43
2022-08-05T12:40:29.684Z,42
2022-08-05T12:42:27.783Z,43
2022-08-05T12:44:33.994Z,42
2022-08-05T12:46:31.525Z,42
2022-08-05T12:48:32.849Z,43
2022-08-05T12:50:34.408Z,43
2022-08-05T12:52:30.461Z,43
2022-08-05T12:54:28.215Z,44
2022-08-05T12:56:34.796Z,43
2022-08-05T12:58:39.603Z,42
2022-08-05T13:01:58.726Z,42
2022-08-05T13:02:30.426Z,42
2022-08-05T13:04:29.954Z,43
2022-08-05T13:06:27.886Z,42
2022-08-05T13:08:28.178Z,42
2022-08-05T13:10:28.713Z,42
2022-08-05T13:12:29.002Z,42
2022-08-05T13:14:36.065Z,42
2022-08-05T13:16:31.423Z,42
2022-08-05T13:18:31.186Z,45
2022-08-05T13:20:31.961Z,42
2022-08-05T13:22:29.941Z,42
2022-08-05T13:24:45.021Z,42
2022-08-05T13:26:29.796Z,41
2022-08-05T13:28:28.181Z,42
2022-08-05T13:30:33.487Z,42
2022-08-05T13:32:30.715Z,42
2022-08-05T13:34:31.313Z,42
2022-08-05T13:36:28.191Z,42
2022-08-05T13:38:34.273Z,42
2022-08-05T13:40:37.209Z,42
2022-08-05T13:42:28.209Z,42
2022-08-05T13:44:28.212Z,42
2022-08-05T13:46:44.188Z,43
2022-08-05T13:48:56.860Z,42
2022-08-05T13:50:30.035Z,42
2022-08-05T13:52:32.259Z,42
2022-08-05T13:54:31.047Z,43
2022-08-05T13:56:31.375Z,43
2022-08-05T13:58:31.223Z,42
2022-08-05T14:00:28.251Z,42
2022-08-05T14:02:31.436Z,43
2022-08-05T14:04:28.180Z,43
2022-08-05T14:06:28.141Z,44
2022-08-05T14:08:32.442Z,42
2022-08-05T14:10:30.922Z,43
2022-08-05T14:12:32.000Z,42
2022-08-05T14:14:32.355Z,42
2022-08-05T14:16:28.148Z,44
2022-08-05T14:18:30.846Z,44
2022-08-05T14:20:28.299Z,44
2022-08-05T14:22:34.364Z,44
2022-08-05T14:24:31.357Z,42
2022-08-05T14:26:35.867Z,43
2022-08-05T14:28:28.243Z,42
2022-08-05T14:30:28.422Z,42
2022-08-05T14:32:31.902Z,43
2022-08-05T14:34:28.153Z,44
2022-08-05T14:36:28.186Z,42
2022-08-05T14:38:32.864Z,44
2022-08-05T14:40:29.975Z,43
2022-08-05T14:42:28.112Z,42
2022-08-05T14:44:30.021Z,42
2022-08-05T14:46:29.889Z,42
2022-08-05T14:48:34.510Z,42
2022-08-05T14:50:30.504Z,42
2022-08-05T14:52:51.495Z,42
2022-08-05T14:54:30.430Z,42
2022-08-05T14:56:28.167Z,42
2022-08-05T14:58:28.126Z,42
2022-08-05T15:00:29.476Z,42
2022-08-05T15:02:28.390Z,42
2022-08-05T15:04:31.811Z,42
2022-08-05T15:06:30.226Z,42
2022-08-05T15:08:38.149Z,45
2022-08-05T15:10:28.724Z,43
2022-08-05T15:12:33.641Z,42
2022-08-05T15:14:34.123Z,42
2022-08-05T15:16:28.147Z,42
2022-08-05T15:18:30.010Z,42
2022-08-05T15:20:28.252Z,42
2022-08-05T15:22:28.631Z,42
2022-08-05T15:24:25.449Z,42
2022-08-05T15:26:32.480Z,42
2022-08-05T15:28:28.177Z,42
2022-08-05T15:30:31.508Z,42
2022-08-05T15:32:28.805Z,42
2022-08-05T15:34:33.496Z,41
2022-08-05T15:36:28.142Z,42
2022-08-05T15:38:35.215Z,42
2022-08-05T15:40:42.839Z,42
2022-08-05T15:42:55.050Z,42
2022-08-05T15:44:30.110Z,42
2022-08-05T15:46:31.952Z,42
2022-08-05T15:48:29.113Z,42
2022-08-05T15:50:28.272Z,42
2022-08-05T15:52:29.090Z,42
2022-08-05T15:54:34.626Z,42
2022-08-05T15:56:28.149Z,42
2022-08-05T15:58:28.217Z,42
2022-08-05T16:00:30.582Z,42
2022-08-05T16:02:31.671Z,42
2022-08-05T16:04:28.175Z,42
2022-08-05T16:06:28.236Z,42
2022-08-05T16:08:31.763Z,42
2022-08-05T16:10:28.619Z,42
2022-08-05T16:12:30.094Z,42
2022-08-05T16:14:28.163Z,42
2022-08-05T16:16:29.653Z,42
2022-08-05T16:18:29.135Z,42
2022-08-05T16:20:28.238Z,42
2022-08-05T16:22:34.149Z,42
2022-08-05T16:24:36.109Z,43
2022-08-05T16:26:28.196Z,43
2022-08-05T16:28:28.146Z,43
2022-08-05T16:30:28.589Z,43
2022-08-05T16:32:28.502Z,43
2022-08-05T16:34:30.362Z,42
2022-08-05T16:36:30.046Z,42
2022-08-05T16:38:28.459Z,42
2022-08-05T16:40:34.589Z,42
2022-08-05T16:42:31.579Z,42
2022-08-05T16:44:28.175Z,42
2022-08-05T16:46:28.179Z,42
2022-08-05T16:48:33.676Z,42
2022-08-05T16:50:28.511Z,42
2022-08-05T16:52:32.688Z,42
2022-08-05T16:54:32.003Z,42
2022-08-05T16:56:28.283Z,42
2022-08-05T16:58:28.285Z,42
2022-08-05T17:00:25.824Z,42
2022-08-05T17:02:33.532Z,42
2022-08-05T17:04:32.494Z,42
2022-08-05T17:06:28.117Z,42
2022-08-05T17:08:33.831Z,42
2022-08-05T17:10:30.386Z,42
2022-08-05T17:12:50.692Z,42
2022-08-05T17:14:34.651Z,42
2022-08-05T17:16:30.044Z,42
2022-08-05T17:18:28.361Z,43
2022-08-05T17:20:28.829Z,42
2022-08-05T17:22:30.171Z,42
2022-08-05T17:24:35.266Z,42
2022-08-05T17:26:28.321Z,43
2022-08-05T17:28:31.140Z,43
2022-08-05T17:30:29.374Z,44
2022-08-05T17:32:29.637Z,46
2022-08-05T17:34:29.631Z,44
2022-08-05T17:36:32.547Z,45
2022-08-05T17:38:28.318Z,45
2022-08-05T17:40:32.080Z,45
2022-08-05T17:42:32.188Z,45
2022-08-05T17:44:32.414Z,46
2022-08-05T17:46:28.199Z,46
2022-08-05T17:48:27.922Z,46
2022-08-05T17:50:30.185Z,47
2022-08-05T17:52:33.172Z,47
2022-08-05T17:54:32.880Z,48
2022-08-05T17:56:28.607Z,47
2022-08-05T17:58:32.509Z,48
2022-08-05T18:00:31.296Z,47
2022-08-05T18:02:28.192Z,46
2022-08-05T18:04:27.133Z,46
2022-08-05T18:06:31.755Z,47
2022-08-05T18:08:29.361Z,47
2022-08-05T18:10:28.289Z,47
2022-08-05T18:12:27.283Z,48
2022-08-05T18:14:31.382Z,48
2022-08-05T18:16:28.267Z,48
2022-08-05T18:18:29.482Z,48
2022-08-05T18:20:32.590Z,48
2022-08-05T18:22:36.430Z,48
2022-08-05T18:24:32.408Z,48
2022-08-05T18:26:31.970Z,48
2022-08-05T18:28:30.592Z,49
2022-08-05T18:30:26.564Z,49
2022-08-05T18:32:29.955Z,48
2022-08-05T18:34:39.716Z,48
2022-08-05T18:36:31.330Z,48
2022-08-05T18:38:28.197Z,48
2022-08-05T18:40:31.265Z,49
2022-08-05T18:42:25.589Z,49
2022-08-05T18:44:33.477Z,49
2022-08-05T18:46:28.178Z,50
2022-08-05T18:48:33.264Z,50
2022-08-05T18:50:42.427Z,50
2022-08-05T18:52:32.845Z,51
2022-08-05T18:54:28.352Z,51
2022-08-05T18:56:28.231Z,52
2022-08-05T18:58:30.351Z,51
2022-08-05T19:00:27.386Z,51
2022-08-05T19:02:29.930Z,52
2022-08-05T19:04:31.315Z,52
2022-08-05T19:06:34.317Z,52
2022-08-05T19:08:33.061Z,53
2022-08-05T19:10:28.880Z,53
2022-08-05T19:12:28.702Z,53
2022-08-05T19:14:45.010Z,53
2022-08-05T19:16:28.472Z,53
2022-08-05T19:18:31.405Z,53
2022-08-05T19:20:31.781Z,54
2022-08-05T19:22:28.240Z,54
2022-08-05T19:24:34.178Z,54
2022-08-05T19:26:33.033Z,54
2022-08-05T19:28:28.663Z,54
2022-08-05T19:30:28.322Z,54
2022-08-05T19:32:32.201Z,54
2022-08-05T19:34:29.528Z,54
2022-08-05T19:36:34.995Z,54
2022-08-05T19:38:28.483Z,55
2022-08-05T19:40:30.008Z,55
2022-08-05T19:42:35.223Z,55
2022-08-05T19:44:31.145Z,55
2022-08-05T19:46:31.451Z,55
2022-08-05T19:48:33.846Z,55
2022-08-05T19:50:32.004Z,55
2022-08-05T19:52:31.327Z,55
2022-08-05T19:54:31.363Z,55
2022-08-05T19:56:32.542Z,55
2022-08-05T19:58:32.902Z,56
2022-08-05T20:00:27.810Z,56
2022-08-05T20:02:28.523Z,55
2022-08-05T20:04:28.478Z,56
2022-08-05T20:06:30.723Z,56
2022-08-05T20:08:29.592Z,56
2022-08-05T20:10:31.238Z,56
2022-08-05T20:12:28.377Z,56
2022-08-05T20:14:28.214Z,56
2022-08-05T20:16:30.837Z,56
2022-08-05T20:18:32.989Z,56
2022-08-05T20:20:32.397Z,56
2022-08-05T20:22:32.690Z,56
2022-08-05T20:24:25.357Z,56
2022-08-05T20:26:28.232Z,56
2022-08-05T20:28:31.587Z,56
2022-08-05T20:30:28.740Z,56
2022-08-05T20:32:28.036Z,57
2022-08-05T20:34:31.409Z,57
2022-08-05T20:36:28.218Z,58
2022-08-05T20:38:35.477Z,58
2022-08-05T20:40:32.666Z,58
2022-08-05T20:42:29.825Z,58
2022-08-05T20:44:30.767Z,58
2022-08-05T20:46:31.834Z,59
2022-08-05T20:48:32.420Z,58
2022-08-05T20:50:29.488Z,58
2022-08-05T20:52:31.185Z,58
2022-08-05T20:54:42.601Z,59
2022-08-05T20:56:34.205Z,59
2022-08-05T20:58:33.800Z,59
2022-08-05T21:02:29.784Z,59
2022-08-05T21:04:31.376Z,60
2022-08-05T21:06:32.058Z,60
2022-08-05T21:08:41.502Z,60
2022-08-05T21:10:31.610Z,61
2022-08-05T21:12:28.208Z,61
2022-08-05T21:14:28.162Z,61
2022-08-05T21:16:30.699Z,61
2022-08-05T21:18:29.871Z,61
2022-08-05T21:20:33.119Z,62
2022-08-05T21:22:28.656Z,62
2022-08-05T21:23:04.284Z,62
2022-08-05T21:25:04.330Z,63
2022-08-05T21:29:04.292Z,66
2022-08-05T21:31:04.283Z,69
2022-08-05T21:35:09.153Z,72
2022-08-05T21:37:04.280Z,72
2022-08-05T21:39:04.369Z,74
2022-08-05T21:41:04.300Z,74
2022-08-05T21:43:05.510Z,75
2022-08-05T21:45:04.270Z,76
2022-08-05T21:47:04.291Z,77
2022-08-05T21:49:04.697Z,76
2022-08-05T21:51:04.277Z,77
2022-08-05T21:55:06.113Z,80
2022-08-05T21:57:30.128Z,80
2022-08-05T21:59:07.876Z,80
2022-08-05T22:01:04.312Z,80
2022-08-05T22:03:04.321Z,80
2022-08-05T22:05:08.878Z,81
2022-08-05T22:07:04.278Z,82
2022-08-05T22:09:13.395Z,83
2022-08-05T22:11:06.637Z,83
2022-08-05T22:13:09.060Z,82
2022-08-05T22:15:04.291Z,82
2022-08-05T22:19:04.283Z,83
2022-08-05T22:21:04.665Z,84
2022-08-05T22:23:09.009Z,83
2022-08-05T22:25:04.298Z,83
2022-08-05T22:27:06.693Z,83
2022-08-05T22:29:04.308Z,83
2022-08-05T22:31:05.502Z,84
2022-08-05T22:35:04.376Z,84
2022-08-05T22:37:04.768Z,84
2022-08-05T22:41:04.535Z,83
2022-08-05T22:43:04.297Z,83
2022-08-05T22:45:04.350Z,83
2022-08-05T22:47:05.122Z,83
2022-08-05T22:49:04.307Z,83
2022-08-05T22:51:06.901Z,83
2022-08-05T22:53:04.313Z,83
2022-08-05T22:55:04.454Z,83
2022-08-05T22:57:04.296Z,83
2022-08-05T22:59:42.758Z,82
2022-08-05T23:01:04.401Z,82
2022-08-05T23:05:05.093Z,83
2022-08-05T23:07:04.300Z,82
2022-08-05T23:11:04.305Z,83
2022-08-05T23:13:04.300Z,83
2022-08-05T23:15:08.603Z,82
2022-08-05T23:17:04.295Z,83
2022-08-05T23:19:04.290Z,83
2022-08-05T23:21:04.300Z,82
2022-08-05T23:23:05.800Z,83
2022-08-05T23:25:04.292Z,83
2022-08-05T23:27:04.311Z,83
2022-08-05T23:29:04.566Z,83
2022-08-05T23:31:16.823Z,83
2022-08-05T23:33:04.308Z,84
2022-08-05T23:35:04.348Z,85
2022-08-05T23:37:04.318Z,86
2022-08-05T23:39:04.745Z,86
2022-08-05T23:41:04.337Z,87
2022-08-05T23:43:11.456Z,86
2022-08-05T23:45:04.336Z,87
2022-08-05T23:49:15.747Z,86
2022-08-05T23:53:04.325Z,86
2022-08-05T23:55:05.375Z,87
2022-08-05T23:57:04.589Z,87
2022-08-05T23:59:04.334Z,86
